Huron Regional Airport
KHON : now visible

Airfield :











YOU CAN JOIN US ON...

 
LOGIN :

Register | Disclaimer

   EN    FR    IT 

 









Legend :    VFR   Marginal VFR   IFR   Intensive IFR   Very Intensive IFR
Visi :
Ceiling :
>= 8 km
>= 3000ft
5 to 8 km
1000 to 3000 ft
1500m to 5 km
500 to 1000 ft
800 to 1500m
200 to 500 ft
< 800m
< 200 ft
Symbols :   Thunderstorms  Fog  Heavy snow  Heavy precipitations  Wind > 20 kt







- Airport Elevation : 1289 ft
- IATA code : HON


KHON - Huron Regional

CURRENT METAR :
  • 191355Z AUTO 18011G18KT 10SM CLR 27/24 A2957 RMK AO2 SLP001 T02720244

EXPIRED METARs :
  • 191255Z AUTO 15013G22KT 10SM CLR 27/24 A2955 RMK AO2 SLP995 T02670239
  • 191155Z AUTO 15013G21KT 8SM CLR 25/23 A2957 RMK AO2 SLP000 70004 T02500233 10250 20233 56021

TAF KHON
Valid from the 19 at 12:00 until the 20 at 12:00 UTC


191126Z 1912/2012 12008KT P6SM FEW090 BKN250
FM191500 17007KT P6SM SCT018
FM191900 32007KT P6SM FEW035
FM200000 01009KT P6SM FEW023
FM200400 04008KT P6SM SCT020 BKN060
PROB30 2009/2010 4SM TSRA BR OVC020CB
FM201000 03010G17KT P6SM BKN050
PROB30 2010/2012 4SM TSRA BR OVC025CB
KZMP FIR / North America



MET'MAP, your aeronautical weather chart ! - Copyright ORBIFLY December 2007 - Disclaimer

ORBIFLY MET'MAP TEAM :

Programming & Development : Alexandra Zaïnal
Concept & Development : Baudouin d'Aumeries
Co-Development & Prog : Marc-Olivier Méhu
Technical & hardware support : Manuel Goepfert

Contact : metmap@orbifly.com




SOURCES & CREDITS :

   NOAA       Earth
Advisory